Time;durP1;ratioP1;P1;durP2;ratioP2;P2;SDS_P1;SDS_P2;PMS_P1;PMS_P2;Temp;Humidity;BMP_temperature;BMP_pressure;BME280_temperature;BME280_humidity;BME280_pressure;Samples;Min_cycle;Max_cycle;Signal;HPM_P1;HPM_P2
2021/04/13 00:01:36;;;;;;;1999.90;999.90;;;;;;;2.78;100.00;-17984.66;5057846;28;20505;-48
2021/04/13 00:04:25;;;;;;;1999.90;999.90;;;;;;;2.84;100.00;-17986.25;5057748;28;20602;-34
2021/04/13 00:07:12;;;;;;;1999.90;999.90;;;;;;;2.76;100.00;-17984.25;5057567;28;20740;-31
2021/04/13 00:10:10;;;;;;;1999.90;999.90;;;;;;;2.73;100.00;-17983.44;5057564;28;20439;-32
2021/04/13 00:12:57;;;;;;;1999.90;999.90;;;;;;;2.56;100.00;-17978.88;5058011;28;20450;-31
2021/04/13 00:15:50;;;;;;;1999.90;999.90;;;;;;;2.81;100.00;-17985.59;5057941;28;20494;-32
2021/04/13 00:18:40;;;;;;;1999.90;999.90;;;;;;;2.80;100.00;-17985.19;5057351;28;20527;-35
2021/04/13 00:21:29;;;;;;;1999.90;999.90;;;;;;;2.61;100.00;-17980.22;5057469;28;20442;-31
2021/04/13 00:24:24;;;;;;;1999.90;999.90;;;;;;;2.68;100.00;-17982.09;5057836;28;20447;-31
2021/04/13 00:27:14;;;;;;;1999.90;999.90;;;;;;;2.69;100.00;-17982.50;5057397;28;20448;-35
2021/04/13 00:30:09;;;;;;;1999.90;999.90;;;;;;;2.72;100.00;-17983.31;5057431;28;20490;-31
2021/04/13 00:33:00;;;;;;;1999.90;999.90;;;;;;;2.84;100.00;-17986.25;5057262;28;20443;-34
2021/04/13 00:35:49;;;;;;;1999.90;999.90;;;;;;;2.71;100.00;-17983.03;5057101;28;20557;-32
2021/04/13 00:38:42;;;;;;;1999.90;999.90;;;;;;;2.62;100.00;-17980.47;5056788;28;20447;-34
2021/04/13 00:41:30;;;;;;;1999.90;999.90;;;;;;;2.65;100.00;-17981.41;5057246;28;20458;-35
2021/04/13 00:44:19;;;;;;;1999.90;999.90;;;;;;;2.52;100.00;-17977.78;5056929;28;20447;-35
2021/04/13 00:47:09;;;;;;;1999.90;999.90;;;;;;;2.56;100.00;-17978.88;5056603;28;20455;-33
2021/04/13 00:49:59;;;;;;;1999.90;999.90;;;;;;;2.57;100.00;-17979.28;5056889;28;20447;-31
2021/04/13 00:52:51;;;;;;;1999.90;999.90;;;;;;;2.31;100.00;-17972.28;5056871;28;20501;-36
2021/04/13 00:55:41;;;;;;;1999.90;999.90;;;;;;;2.22;100.00;-17969.97;5056705;28;20522;-33
2021/04/13 00:58:32;;;;;;;1999.90;999.90;;;;;;;2.32;100.00;-17972.69;5056886;28;20458;-34
2021/04/13 01:01:23;;;;;;;1999.90;999.90;;;;;;;2.14;100.00;-17967.69;5056719;28;20598;-35
2021/04/13 01:04:13;;;;;;;1999.90;999.90;;;;;;;2.05;100.00;-17965.41;5056692;28;20448;-36
2021/04/13 01:07:00;;;;;;;1999.90;999.90;;;;;;;2.03;100.00;-17964.88;5056544;28;20529;-35
2021/04/13 01:09:48;;;;;;;1999.90;999.90;;;;;;;2.21;100.00;-17969.56;5056284;28;20443;-31
2021/04/13 01:12:37;;;;;;;1999.90;999.90;;;;;;;2.28;100.00;-17971.47;5056515;28;20447;-32
2021/04/13 01:15:23;;;;;;;1999.90;999.90;;;;;;;2.13;100.00;-17967.44;5056618;28;20881;-35
2021/04/13 01:18:17;;;;;;;1999.90;999.90;;;;;;;2.25;100.00;-17970.78;5056148;28;20442;-32
2021/04/13 01:21:13;;;;;;;1999.90;999.90;;;;;;;2.21;100.00;-17969.56;5056327;28;20450;-31
2021/04/13 01:24:08;;;;;;;1999.90;999.90;;;;;;;2.06;100.00;-17965.69;5055982;28;20681;-34
2021/04/13 01:26:57;;;;;;;1999.90;999.90;;;;;;;1.92;100.00;-17961.91;5056039;28;20856;-31
2021/04/13 01:29:43;;;;;;;1999.90;999.90;;;;;;;1.89;100.00;-17961.25;5056397;28;20536;-35
2021/04/13 01:32:30;;;;;;;1999.90;999.90;;;;;;;1.88;100.00;-17960.84;5056320;28;20443;-33
2021/04/13 01:35:29;;;;;;;1999.90;999.90;;;;;;;1.85;100.00;-17960.03;5056433;28;20462;-37
2021/04/13 01:38:19;;;;;;;1999.90;999.90;;;;;;;1.84;100.00;-17959.88;5056007;28;20439;-32
2021/04/13 01:41:22;;;;;;;1999.90;999.90;;;;;;;1.83;100.00;-17959.50;5055895;28;20987;-33
2021/04/13 01:44:10;;;;;;;1999.90;999.90;;;;;;;1.75;100.00;-17957.47;5055927;28;20450;-33
2021/04/13 01:47:00;;;;;;;1999.90;999.90;;;;;;;1.70;100.00;-17956.13;5056280;28;20982;-33
2021/04/13 01:49:50;;;;;;;1999.90;999.90;;;;;;;1.65;100.00;-17954.78;5055631;28;20463;-33
2021/04/13 01:52:40;;;;;;;1999.90;999.90;;;;;;;1.56;100.00;-17952.34;5056051;28;20439;-33
2021/04/13 01:55:33;;;;;;;1999.90;999.90;;;;;;;1.35;100.00;-17946.84;5055655;28;20439;-32
2021/04/13 01:58:24;;;;;;;1999.90;999.90;;;;;;;1.31;100.00;-17945.75;5056035;28;20845;-34
2021/04/13 02:01:19;;;;;;;1999.90;999.90;;;;;;;1.40;100.00;-17948.06;5056101;28;20742;-30
2021/04/13 02:04:20;;;;;;;1999.90;999.90;;;;;;;1.52;100.00;-17951.41;5056181;28;20541;-34
2021/04/13 02:07:20;;;;;;;1999.90;999.90;;;;;;;1.28;100.00;-17945.09;5056210;28;20443;-32
2021/04/13 02:10:19;;;;;;;1999.90;999.90;;;;;;;1.38;100.00;-17947.78;5055895;28;20451;-32
2021/04/13 02:13:16;;;;;;;1999.90;999.90;;;;;;;1.36;100.00;-17947.09;5056160;28;20845;-32
2021/04/13 02:16:07;;;;;;;1999.90;999.90;;;;;;;1.62;100.00;-17954.09;5055785;28;20482;-32
2021/04/13 02:18:54;;;;;;;1999.90;999.90;;;;;;;1.45;100.00;-17949.41;5059213;28;20877;-36
2021/04/13 02:21:47;;;;;;;1999.90;999.90;;;;;;;1.53;100.00;-17951.56;5060075;28;20442;-31
2021/04/13 02:24:34;;;;;;;1999.90;999.90;;;;;;;1.70;100.00;-17956.13;5059863;28;20621;-32
2021/04/13 02:27:24;;;;;;;1999.90;999.90;;;;;;;1.87;100.00;-17960.56;5059917;28;20466;-30
2021/04/13 02:30:13;;;;;;;1999.90;999.90;;;;;;;1.59;100.00;-17953.31;5059646;28;20478;-33
2021/04/13 02:33:01;;;;;;;1999.90;999.90;;;;;;;1.67;100.00;-17955.31;5059862;28;20442;-31
2021/04/13 02:35:48;;;;;;;1999.90;999.90;;;;;;;1.73;100.00;-17956.94;5059418;28;20482;-32
2021/04/13 02:38:39;;;;;;;1999.90;999.90;;;;;;;1.93;100.00;-17962.19;5059693;28;20458;-32
2021/04/13 02:41:30;;;;;;;1999.90;999.90;;;;;;;1.80;100.00;-17958.69;5059362;28;20902;-35
2021/04/13 02:44:22;;;;;;;1999.90;999.90;;;;;;;2.12;100.00;-17967.16;5059269;28;20529;-32
2021/04/13 02:47:13;;;;;;;1999.90;999.90;;;;;;;2.31;100.00;-17972.41;5059719;28;20443;-37
2021/04/13 02:50:04;;;;;;;1999.90;999.90;;;;;;;2.09;100.00;-17966.50;5059156;28;20451;-35
2021/04/13 02:52:52;;;;;;;1999.90;999.90;;;;;;;2.34;100.00;-17973.06;5059358;28;20458;-31
2021/04/13 02:55:40;;;;;;;1999.90;999.90;;;;;;;2.35;100.00;-17973.47;5059192;28;20548;-33
2021/04/13 02:58:32;;;;;;;1999.90;999.90;;;;;;;2.22;100.00;-17969.97;5059149;28;20450;-32
2021/04/13 03:01:25;;;;;;;1999.90;999.90;;;;;;;2.24;100.00;-17970.38;5058951;28;20475;-32
2021/04/13 03:04:13;;;;;;;1999.90;999.90;;;;;;;2.06;100.00;-17965.81;5059337;28;20439;-32
2021/04/13 03:06:59;;;;;;;1999.90;999.90;;;;;;;2.03;100.00;-17964.88;5059067;28;20442;-34
2021/04/13 03:09:46;;;;;;;1999.90;999.90;;;;;;;1.94;100.00;-17962.59;5059302;28;20521;-32
2021/04/13 03:12:35;;;;;;;1999.90;999.90;;;;;;;2.09;100.00;-17966.50;5059195;28;20451;-33
2021/04/13 03:15:24;;;;;;;1999.90;999.90;;;;;;;2.22;100.00;-17969.97;5058977;28;20716;-33
2021/04/13 03:18:15;;;;;;;1999.90;999.90;;;;;;;2.11;100.00;-17967.03;5058890;28;20463;-31
2021/04/13 03:21:07;;;;;;;1999.90;999.90;;;;;;;2.11;100.00;-17967.03;5058874;28;20874;-31
2021/04/13 03:23:57;;;;;;;1999.90;999.90;;;;;;;2.14;100.00;-17967.84;5058693;28;20543;-32
2021/04/13 03:26:47;;;;;;;1999.90;999.90;;;;;;;1.97;100.00;-17963.25;5058619;28;20463;-36
2021/04/13 03:29:43;;;;;;;1999.90;999.90;;;;;;;2.04;100.00;-17965.13;5057200;28;20482;-34
2021/04/13 03:32:34;;;;;;;1999.90;999.90;;;;;;;2.09;100.00;-17966.50;5058021;28;20462;-33
2021/04/13 03:35:25;;;;;;;1999.90;999.90;;;;;;;1.87;100.00;-17960.56;5058488;28;20509;-33
2021/04/13 03:38:16;;;;;;;1999.90;999.90;;;;;;;2.03;100.00;-17965.00;5058088;28;20439;-35
2021/04/13 03:41:03;;;;;;;1999.90;999.90;;;;;;;1.94;100.00;-17962.59;5058466;28;20727;-32
2021/04/13 03:43:55;;;;;;;1999.90;999.90;;;;;;;1.98;100.00;-17963.53;5058398;28;20973;-33
2021/04/13 03:46:41;;;;;;;1999.90;999.90;;;;;;;1.84;100.00;-17959.88;5057974;28;20514;-31
2021/04/13 03:49:31;;;;;;;1999.90;999.90;;;;;;;1.96;100.00;-17963.00;5057868;28;20532;-35
2021/04/13 03:52:22;;;;;;;1999.90;999.90;;;;;;;1.96;100.00;-17963.13;5057785;28;20443;-32
2021/04/13 03:55:21;;;;;;;1999.90;999.90;;;;;;;2.12;100.00;-17967.16;5057954;28;20451;-35
2021/04/13 03:58:22;;;;;;;1999.90;999.90;;;;;;;2.24;100.00;-17970.53;5057985;28;20471;-35
2021/04/13 04:01:10;;;;;;;1999.90;999.90;;;;;;;1.96;100.00;-17963.00;5057365;28;20446;-32
2021/04/13 04:03:58;;;;;;;1999.90;999.90;;;;;;;2.35;100.00;-17973.34;5058027;28;20451;-38
2021/04/13 04:06:51;;;;;;;1999.90;999.90;;;;;;;2.52;100.00;-17977.91;5058041;28;20529;-41
2021/04/13 04:09:38;;;;;;;1999.90;999.90;;;;;;;2.37;100.00;-17974.03;5057752;28;20537;-35
2021/04/13 04:12:28;;;;;;;1999.90;999.90;;;;;;;2.66;100.00;-17981.69;5057726;28;20447;-36
2021/04/13 04:15:26;;;;;;;1999.90;999.90;;;;;;;2.40;100.00;-17974.81;5057503;28;20878;-37
2021/04/13 04:18:17;;;;;;;1999.90;999.90;;;;;;;2.41;100.00;-17975.09;5057668;28;20513;-31
2021/04/13 04:21:19;;;;;;;1999.90;999.90;;;;;;;2.52;100.00;-17977.78;5057774;28;20621;-44
2021/04/13 04:24:08;;;;;;;1999.90;999.90;;;;;;;2.30;100.00;-17972.13;5057847;28;20552;-43
2021/04/13 04:27:01;;;;;;;1999.90;999.90;;;;;;;2.37;100.00;-17974.03;5057827;28;20447;-43
2021/04/13 04:29:51;;;;;;;1999.90;999.90;;;;;;;2.38;100.00;-17974.28;5057573;28;20478;-45
2021/04/13 04:32:42;;;;;;;1999.90;999.90;;;;;;;1.91;100.00;-17961.78;5057029;28;20471;-39
2021/04/13 04:35:35;;;;;;;1999.90;999.90;;;;;;;2.26;100.00;-17971.06;5056962;28;20522;-37
2021/04/13 04:38:27;;;;;;;1999.90;999.90;;;;;;;2.29;100.00;-17971.88;5057648;28;20886;-40
2021/04/13 04:41:13;;;;;;;1999.90;999.90;;;;;;;2.16;100.00;-17968.25;5056836;28;20462;-36
2021/04/13 04:44:01;;;;;;;1999.90;999.90;;;;;;;2.19;100.00;-17969.03;5057478;28;20447;-40
2021/04/13 04:46:47;;;;;;;1999.90;999.90;;;;;;;1.81;100.00;-17958.94;5057393;28;20438;-38
2021/04/13 04:49:40;;;;;;;1999.90;999.90;;;;;;;1.98;100.00;-17963.53;5056995;28;20447;-39
2021/04/13 04:52:27;;;;;;;1999.90;999.90;;;;;;;2.18;100.00;-17968.91;5057157;28;20497;-39
2021/04/13 04:55:18;;;;;;;1999.90;999.90;;;;;;;2.23;100.00;-17970.25;5056142;28;20597;-39
2021/04/13 04:58:04;;;;;;;1999.90;999.90;;;;;;;2.13;100.00;-17967.56;5056115;28;20657;-39
2021/04/13 05:00:52;;;;;;;1999.90;999.90;;;;;;;2.12;100.00;-17967.28;5056928;28;20439;-39
2021/04/13 05:03:41;;;;;;;1999.90;999.90;;;;;;;2.15;100.00;-17968.09;5056730;28;20447;-41
2021/04/13 05:06:28;;;;;;;1999.90;999.90;;;;;;;2.29;100.00;-17971.88;5056398;28;20443;-42
2021/04/13 05:09:17;;;;;;;1999.90;999.90;;;;;;;2.34;100.00;-17973.06;5056765;28;20468;-42
2021/04/13 05:12:06;;;;;;;1999.90;999.90;;;;;;;2.50;100.00;-17977.38;5055909;28;20443;-42
2021/04/13 05:14:52;;;;;;;1999.90;999.90;;;;;;;2.55;100.00;-17978.72;5055538;28;20466;-43
2021/04/13 05:17:39;;;;;;;1999.90;999.90;;;;;;;2.53;100.00;-17978.19;5056114;28;20475;-34
2021/04/13 05:20:26;;;;;;;1999.90;999.90;;;;;;;2.67;100.00;-17981.81;5055925;28;20601;-43
2021/04/13 05:23:13;;;;;;;1999.90;999.90;;;;;;;2.52;100.00;-17977.78;5052672;28;20511;-44
2021/04/13 05:26:03;;;;;;;1999.90;999.90;;;;;;;2.87;100.00;-17987.19;5036260;28;20452;-43
2021/04/13 05:28:49;;;;;;;1999.90;999.90;;;;;;;3.19;100.00;-17995.53;5036061;28;20483;-44
2021/04/13 05:31:37;;;;;;;1999.90;999.90;;;;;;;3.70;100.00;-18009.13;5036493;28;20452;-43
2021/04/13 05:34:24;;;;;;;1999.90;999.90;;;;;;;3.94;100.00;-18015.56;5036509;28;20448;-43
2021/04/13 05:37:11;;;;;;;1999.90;999.90;;;;;;;4.87;100.00;-18040.16;5036697;28;20582;-44
2021/04/13 05:39:57;;;;;;;1999.90;999.90;;;;;;;5.79;100.00;-18064.44;5049427;28;20254;-43
2021/04/13 05:42:44;;;;;;;1999.90;999.90;;;;;;;5.73;100.00;-18062.97;5056449;28;20712;-44
2021/04/13 05:45:33;;;;;;;1999.90;999.90;;;;;;;6.20;100.00;-18075.31;5056311;28;20204;-43
2021/04/13 05:48:21;;;;;;;1999.90;999.90;;;;;;;6.23;100.00;-18076.25;5056190;28;20343;-43
2021/04/13 05:51:08;;;;;;;1999.90;999.90;;;;;;;6.13;100.00;-18073.56;5056194;28;20200;-44
2021/04/13 05:53:54;;;;;;;1999.90;999.90;;;;;;;5.85;100.00;-18066.06;5059935;28;20512;-43
2021/04/13 05:56:42;;;;;;;1999.90;999.90;;;;;;;6.28;100.00;-18077.47;5060053;28;20366;-44
2021/04/13 05:59:32;;;;;;;1999.90;999.90;;;;;;;5.82;100.00;-18065.25;5059899;28;20204;-45
2021/04/13 06:02:18;;;;;;;1999.90;999.90;;;;;;;6.48;100.00;-18082.84;5060063;28;20203;-45
2021/04/13 06:05:05;;;;;;;1999.90;999.90;;;;;;;5.66;100.00;-18061.09;5060299;28;20195;-45
2021/04/13 06:07:55;;;;;;;1999.90;999.90;;;;;;;6.27;100.00;-18077.19;5060321;28;20196;-45
2021/04/13 06:10:41;;;;;;;1999.90;999.90;;;;;;;6.78;100.00;-18090.63;5059793;28;20497;-45
2021/04/13 06:13:27;;;;;;;1999.90;999.90;;;;;;;7.04;100.00;-18097.44;5059378;28;20255;-45
2021/04/13 06:16:16;;;;;;;1999.90;999.90;;;;;;;7.39;100.00;-18106.69;5059641;28;20505;-45
2021/04/13 06:19:06;;;;;;;1999.90;999.90;;;;;;;6.17;100.00;-18074.50;5060104;28;20206;-45
2021/04/13 06:21:57;;;;;;;1999.90;999.90;;;;;;;7.14;100.00;-18100.25;5060364;28;20206;-46
2021/04/13 06:24:47;;;;;;;1999.90;999.90;;;;;;;8.09;100.00;-18125.19;5060183;28;20203;-46
2021/04/13 06:27:33;;;;;;;1999.90;999.90;;;;;;;8.46;100.00;-18134.97;5060466;28;20200;-45
2021/04/13 06:30:27;;;;;;;1999.90;999.90;;;;;;;9.52;94.52;-18162.94;5060219;28;20678;-42
2021/04/13 06:33:18;;;;;;;1999.90;999.90;;;;;;;7.95;99.96;-18121.72;5059717;28;20197;-43
2021/04/13 06:36:06;;;;;;;1999.90;999.90;;;;;;;6.91;100.00;-18094.22;5059490;28;20208;-43
2021/04/13 06:38:53;;;;;;;1999.90;999.90;;;;;;;5.54;100.00;-18057.88;5057482;28;20706;-43
2021/04/13 06:42:18;;;;;;;1999.90;999.90;;;;;;;7.61;100.00;-18112.72;5058149;28;20206;-45
2021/04/13 06:45:23;;;;;;;1999.90;999.90;;;;;;;8.58;100.00;-18138.31;5037235;28;20375;-45
2021/04/13 06:48:37;;;;;;;1999.90;999.90;;;;;;;5.93;100.00;-18068.06;5044290;28;20302;-43
2021/04/13 06:51:42;;;;;;;1999.90;999.90;;;;;;;5.67;100.00;-18061.22;5059020;28;20615;-44
2021/04/13 06:54:40;;;;;;;1999.90;999.90;;;;;;;6.21;100.00;-18075.59;5056455;28;20260;-43
2021/04/13 06:57:46;;;;;;;1999.90;999.90;;;;;;;5.62;100.00;-18060.00;5058296;28;20539;-43
2021/04/13 07:00:44;;;;;;;1999.90;999.90;;;;;;;7.74;100.00;-18116.09;5058507;28;20633;-44
2021/04/13 07:03:33;;;;;;;1999.90;999.90;;;;;;;9.09;100.00;-18151.72;5055880;28;20213;-44
2021/04/13 07:06:38;;;;;;;1999.90;999.90;;;;;;;7.82;100.00;-18118.22;5055540;28;20626;-45
2021/04/13 07:09:34;;;;;;;1999.90;999.90;;;;;;;6.71;100.00;-18088.72;5054370;28;20205;-43
2021/04/13 07:12:26;;;;;;;1999.90;999.90;;;;;;;7.14;100.00;-18100.25;5058206;28;20290;-44
2021/04/13 07:15:16;;;;;;;1999.90;999.90;;;;;;;7.07;100.00;-18098.38;5058145;28;20770;-44
2021/04/13 07:18:11;;;;;;;1999.90;999.90;;;;;;;6.85;100.00;-18092.63;5057091;28;20364;-43
2021/04/13 07:21:03;;;;;;;1999.90;999.90;;;;;;;7.16;100.00;-18100.81;5058716;28;20207;-43
2021/04/13 07:23:52;;;;;;;1999.90;999.90;;;;;;;8.59;100.00;-18138.59;5059291;28;20232;-43
2021/04/13 07:26:42;;;;;;;1999.90;999.90;;;;;;;8.95;100.00;-18148.09;5057354;28;20208;-43
2021/04/13 07:29:35;;;;;;;1999.90;999.90;;;;;;;8.32;100.00;-18131.22;5058452;28;20306;-45
2021/04/13 07:32:28;;;;;;;1999.90;999.90;;;;;;;8.04;100.00;-18123.84;5058761;28;20311;-43
2021/04/13 07:35:20;;;;;;;1999.90;999.90;;;;;;;8.97;100.00;-18148.50;5058383;28;20303;-43
2021/04/13 07:38:11;;;;;;;1999.90;999.90;;;;;;;7.65;100.00;-18113.53;5058702;28;20319;-43
2021/04/13 07:41:10;;;;;;;1999.90;999.90;;;;;;;9.55;100.00;-18163.88;5058260;28;20590;-35
2021/04/13 07:44:06;;;;;;;1999.90;999.90;;;;;;;6.78;100.00;-18090.75;5057947;28;20205;-32
2021/04/13 07:47:01;;;;;;;1999.90;999.90;;;;;;;9.30;100.00;-18157.19;5038019;28;20202;-32
2021/04/13 07:49:52;;;;;;;1999.90;999.90;;;;;;;9.28;100.00;-18156.78;5037883;28;20214;-32
2021/04/13 14:09:37;;;;;;;1999.90;999.90;;;;;;;11.86;48.22;-18224.59;5743880;23;20280;-30
2021/04/13 14:12:29;;;;;;;1999.90;999.90;;;;;;;11.09;49.68;-18204.28;4919399;29;20214;-30
2021/04/13 14:15:29;;;;;;;1999.90;999.90;;;;;;;10.46;56.71;-18187.69;4927774;29;20201;-30
2021/04/13 14:18:26;;;;;;;1999.90;999.90;;;;;;;10.40;59.35;-18186.22;4924977;29;20244;-30
2021/04/13 14:21:16;;;;;;;1999.90;999.90;;;;;;;9.83;59.36;-18171.25;4923188;29;20228;-30
2021/04/13 14:24:12;;;;;;;1999.90;999.90;;;;;;;9.74;55.29;-18168.72;4923506;29;20203;-30
2021/04/13 14:27:11;;;;;;;1999.90;999.90;;;;;;;9.53;53.31;-18163.22;4923632;29;20204;-29
2021/04/13 14:30:07;;;;;;;1999.90;999.90;;;;;;;9.90;52.29;-18173.13;4923270;29;20210;-30
2021/04/13 14:32:53;;;;;;;1999.90;999.90;;;;;;;9.30;51.64;-18157.34;4932906;29;20213;-30
2021/04/13 14:35:43;;;;;;;1999.90;999.90;;;;;;;9.64;55.82;-18166.16;4923506;29;20265;-29
2021/04/13 14:38:34;;;;;;;1999.90;999.90;;;;;;;9.73;64.25;-18168.56;4924893;29;20239;-29
2021/04/13 14:41:20;;;;;;;1999.90;999.90;;;;;;;9.92;60.60;-18173.66;4923473;29;20207;-30
2021/04/13 14:44:06;;;;;;;1999.90;999.90;;;;;;;10.31;62.65;-18183.81;4923674;29;20209;-29
2021/04/13 14:46:56;;;;;;;1999.90;999.90;;;;;;;11.08;59.27;-18204.16;4923033;29;20697;-29
2021/04/13 14:49:41;;;;;;;1999.90;999.90;;;;;;;11.56;54.62;-18216.72;4922561;29;20201;-30
2021/04/13 14:52:31;;;;;;;1999.90;999.90;;;;;;;10.51;49.86;-18189.03;4922768;29;20209;-29
2021/04/13 14:55:19;;;;;;;1999.90;999.90;;;;;;;11.32;49.81;-18210.44;4924003;29;20226;-29
2021/04/13 14:58:07;;;;;;;1999.90;999.90;;;;;;;10.75;48.63;-18195.47;4924924;29;20240;-30
2021/04/13 15:00:53;;;;;;;1999.90;999.90;;;;;;;10.83;48.17;-18197.47;4922823;29;20209;-30
2021/04/13 15:03:42;;;;;;;1999.90;999.90;;;;;;;11.31;47.18;-18210.28;4922578;29;20618;-30
2021/04/13 15:06:31;;;;;;;1999.90;999.90;;;;;;;11.32;47.27;-18210.56;4922386;29;20277;-29
2021/04/13 15:09:16;;;;;;;1999.90;999.90;;;;;;;11.84;46.47;-18224.06;4924068;29;20706;-30
2021/04/13 15:12:03;;;;;;;1999.90;999.90;;;;;;;11.18;47.95;-18206.81;4923387;29;20282;-30
2021/04/13 15:15:10;;;;;;;1999.90;999.90;;;;;;;11.41;50.41;-18212.81;4922593;29;20209;-30
2021/04/13 15:18:01;;;;;;;1999.90;999.90;;;;;;;11.01;53.54;-18202.41;4922471;29;20232;-30
2021/04/13 15:20:48;;;;;;;1999.90;999.90;;;;;;;10.72;55.73;-18194.66;4914535;29;20613;-30
2021/04/13 15:23:35;;;;;;;1999.90;999.90;;;;;;;10.35;58.06;-18185.03;4922482;29;20220;-29
2021/04/13 15:26:25;;;;;;;1999.90;999.90;;;;;;;9.85;58.41;-18171.66;4923198;29;20273;-30
2021/04/13 15:29:10;;;;;;;1999.90;999.90;;;;;;;10.24;59.68;-18181.94;4924466;29;20428;-30
2021/04/13 15:32:01;;;;;;;1999.90;999.90;;;;;;;9.83;61.76;-18171.25;4923367;29;20268;-30
2021/04/13 15:34:52;;;;;;;1999.90;999.90;;;;;;;9.67;59.65;-18166.97;4922263;29;20360;-30
2021/04/13 15:37:48;;;;;;;1999.90;999.90;;;;;;;9.79;64.80;-18170.16;4922487;29;20639;-30
2021/04/13 15:40:40;;;;;;;1999.90;999.90;;;;;;;9.26;68.34;-18156.13;4922929;29;20276;-30
2021/04/13 15:43:32;;;;;;;1999.90;999.90;;;;;;;9.10;70.23;-18151.97;4923481;29;20215;-30
2021/04/13 15:46:21;;;;;;;1999.90;999.90;;;;;;;8.96;70.05;-18148.22;4921416;29;20459;-29
2021/04/13 15:49:13;;;;;;;1999.90;999.90;;;;;;;9.33;72.91;-18158.13;4924460;29;20291;-30
2021/04/13 15:52:00;;;;;;;1999.90;999.90;;;;;;;9.13;71.45;-18152.66;4922191;29;20591;-30
2021/04/13 15:54:45;;;;;;;1999.90;999.90;;;;;;;9.15;72.27;-18153.31;4921950;29;20279;-30
2021/04/13 15:57:31;;;;;;;1999.90;999.90;;;;;;;9.37;71.62;-18159.06;4921229;29;20217;-30
2021/04/13 16:00:21;;;;;;;1999.90;999.90;;;;;;;9.37;71.92;-18158.94;4922210;29;20281;-30
2021/04/13 16:03:09;;;;;;;1999.90;999.90;;;;;;;8.71;74.26;-18141.53;4922734;29;20210;-30
2021/04/13 16:05:55;;;;;;;1999.90;999.90;;;;;;;8.79;75.97;-18143.81;4921438;29;20200;-30
2021/04/13 16:08:41;;;;;;;1999.90;999.90;;;;;;;8.96;76.10;-18148.22;4920808;29;20618;-30
2021/04/13 16:11:27;;;;;;;1999.90;999.90;;;;;;;9.54;74.55;-18163.63;4921594;29;20318;-30
2021/04/13 16:14:14;;;;;;;1999.90;999.90;;;;;;;9.36;72.18;-18158.81;4921282;29;20222;-30
2021/04/13 16:16:59;;;;;;;1999.90;999.90;;;;;;;9.54;73.79;-18163.63;4924240;29;20526;-30
2021/04/13 16:19:45;;;;;;;1999.90;999.90;;;;;;;9.52;73.82;-18162.94;4922261;29;20256;-30
2021/04/13 16:22:32;;;;;;;1999.90;999.90;;;;;;;9.71;73.66;-18168.03;4921333;29;20201;-30
2021/04/13 16:25:19;;;;;;;1999.90;999.90;;;;;;;9.60;73.86;-18165.22;4920841;29;20331;-31
2021/04/13 16:28:10;;;;;;;1999.90;999.90;;;;;;;9.82;71.60;-18170.97;4921714;29;20198;-30
2021/04/13 16:31:03;;;;;;;1999.90;999.90;;;;;;;9.86;72.02;-18172.03;4921438;29;20356;-30
2021/04/13 16:33:49;;;;;;;1999.90;999.90;;;;;;;9.29;71.42;-18157.06;4921438;29;20221;-30
2021/04/13 16:36:45;;;;;;;1999.90;999.90;;;;;;;9.54;70.23;-18163.50;4922274;29;20210;-30
2021/04/13 16:39:38;;;;;;;1999.90;999.90;;;;;;;9.47;71.29;-18161.63;4925429;29;20345;-30
2021/04/13 16:42:30;;;;;;;1999.90;999.90;;;;;;;9.24;72.33;-18155.72;4921968;29;20247;-31
2021/04/13 16:45:26;;;;;;;1999.90;999.90;;;;;;;9.45;71.63;-18161.06;4920187;29;20291;-30
2021/04/13 16:48:16;;;;;;;1999.90;999.90;;;;;;;9.42;73.46;-18160.28;4920538;29;20497;-30
2021/04/13 16:51:08;;;;;;;1999.90;999.90;;;;;;;9.55;73.38;-18163.75;4921494;29;20205;-30
2021/04/13 16:53:54;;;;;;;1999.90;999.90;;;;;;;9.21;71.58;-18154.78;4920535;29;20206;-31
2021/04/13 16:56:41;;;;;;;1999.90;999.90;;;;;;;9.27;70.21;-18156.41;4920022;29;20225;-30
2021/04/13 16:59:32;;;;;;;1999.90;999.90;;;;;;;9.17;68.06;-18153.84;4921366;29;20297;-31
2021/04/13 17:02:26;;;;;;;1999.90;999.90;;;;;;;9.35;67.94;-18158.53;4903405;29;20271;-30
2021/04/13 17:05:18;;;;;;;1999.90;999.90;;;;;;;9.28;67.05;-18156.78;4901328;29;20206;-31
2021/04/13 17:08:13;;;;;;;1999.90;999.90;;;;;;;8.94;67.06;-18147.69;4904651;29;20206;-30
2021/04/13 17:11:04;;;;;;;1999.90;999.90;;;;;;;9.20;68.81;-18154.66;4902974;29;20241;-30
2021/04/13 17:13:54;;;;;;;1999.90;999.90;;;;;;;9.06;68.25;-18150.91;4902839;29;20206;-30
2021/04/13 17:16:49;;;;;;;1999.90;999.90;;;;;;;9.13;67.92;-18152.66;4901598;29;20210;-30
2021/04/13 17:19:41;;;;;;;1999.90;999.90;;;;;;;8.94;70.51;-18147.69;4901523;29;20194;-30
2021/04/13 17:22:30;;;;;;;1999.90;999.90;;;;;;;8.61;72.65;-18139.13;4902430;29;20230;-30
2021/04/13 17:25:23;;;;;;;1999.90;999.90;;;;;;;8.59;72.69;-18138.47;4919816;29;20494;-30
2021/04/13 17:28:15;;;;;;;1999.90;999.90;;;;;;;8.79;73.33;-18143.69;4922302;29;20235;-30
2021/04/13 17:31:07;;;;;;;1999.90;999.90;;;;;;;8.37;73.37;-18132.56;4921291;29;20198;-30
2021/04/13 17:33:54;;;;;;;1999.90;999.90;;;;;;;8.36;76.23;-18132.28;4923503;29;20230;-31
2021/04/13 17:36:43;;;;;;;1999.90;999.90;;;;;;;8.46;76.08;-18134.97;4922197;29;20197;-30
2021/04/13 17:39:37;;;;;;;1999.90;999.90;;;;;;;8.25;76.00;-18129.47;4921551;29;20485;-30
2021/04/13 17:42:27;;;;;;;1999.90;999.90;;;;;;;8.20;78.76;-18128.28;4921754;29;20209;-30
2021/04/13 17:45:18;;;;;;;1999.90;999.90;;;;;;;8.16;78.71;-18127.06;4921097;29;20506;-30
2021/04/13 17:48:10;;;;;;;1999.90;999.90;;;;;;;8.05;80.21;-18124.13;4920456;29;20205;-31
2021/04/13 17:51:04;;;;;;;1999.90;999.90;;;;;;;8.06;81.05;-18124.53;4923058;29;20253;-31
2021/04/13 17:53:53;;;;;;;1999.90;999.90;;;;;;;7.91;80.81;-18120.63;4922454;29;20609;-31
2021/04/13 17:56:47;;;;;;;1999.90;999.90;;;;;;;7.81;83.10;-18117.94;4922113;29;20245;-31
2021/04/13 17:59:33;;;;;;;1999.90;999.90;;;;;;;7.46;86.15;-18108.56;4923263;29;20491;-29
2021/04/13 18:02:23;;;;;;;1999.90;999.90;;;;;;;7.34;86.14;-18105.50;4921528;29;20224;-30
2021/04/13 18:05:15;;;;;;;1999.90;999.90;;;;;;;7.29;88.13;-18104.00;4920987;29;20253;-30
2021/04/13 18:08:08;;;;;;;1999.90;999.90;;;;;;;7.35;87.81;-18105.63;4922374;29;20205;-30
2021/04/13 18:11:02;;;;;;;1999.90;999.90;;;;;;;7.18;88.08;-18101.34;4921445;29;20241;-30
2021/04/13 18:13:52;;;;;;;1999.90;999.90;;;;;;;7.07;89.46;-18098.25;4921205;29;20205;-30
2021/04/13 18:16:42;;;;;;;1999.90;999.90;;;;;;;7.29;90.19;-18104.00;4922392;29;20215;-29
2021/04/13 18:19:33;;;;;;;1999.90;999.90;;;;;;;6.94;94.35;-18094.91;4921752;29;20221;-30
2021/04/13 18:22:24;;;;;;;1999.90;999.90;;;;;;;7.05;96.05;-18097.72;4921154;29;20486;-29
2021/04/13 18:25:18;;;;;;;1999.90;999.90;;;;;;;6.76;96.78;-18090.06;4921162;29;20210;-29
2021/04/13 18:28:10;;;;;;;1999.90;999.90;;;;;;;6.60;99.08;-18085.91;4921846;29;20310;-29
2021/04/13 18:30:59;;;;;;;1999.90;999.90;;;;;;;6.90;100.00;-18093.97;4921795;29;20530;-29
2021/04/13 18:33:52;;;;;;;1999.90;999.90;;;;;;;6.67;100.00;-18087.66;4922066;29;20224;-29
2021/04/13 18:36:45;;;;;;;1999.90;999.90;;;;;;;6.47;100.00;-18082.44;4924715;29;20205;-29
2021/04/13 18:39:33;;;;;;;1999.90;999.90;;;;;;;6.07;100.00;-18071.97;4923195;29;20211;-28
2021/04/13 18:42:26;;;;;;;1999.90;999.90;;;;;;;5.92;100.00;-18067.81;4921771;29;20232;-29
2021/04/13 18:45:17;;;;;;;1999.90;999.90;;;;;;;6.14;100.00;-18073.72;4926749;29;20291;-28
2021/04/13 18:48:08;;;;;;;1999.90;999.90;;;;;;;5.98;100.00;-18069.41;4921315;29;20343;-28
2021/04/13 18:51:02;;;;;;;1999.90;999.90;;;;;;;5.86;100.00;-18066.31;4921858;29;20206;-28